LOWK

Klagenfurt Airport

Klagenfurt am Wörthersee, Austria
TAF LOWK 201715Z 2018/2118 VRB02KT CAVOK TX26/2115Z TN09/2104Z TEMPO 2110/2118 12005KT 9999 FEW060
Issued Valid From Valid To
Apr-20 @ 17:15 UTC
(an hour ago)
Apr-20 @ 18:00 UTC
(40 minutes ago)
Apr-21 @ 18:00 UTC
(in 23 hours)
Apr-20 @ 18:00 to Apr-21 @ 18:00
TAF LOWK 201715Z 2018/2118 VRB02KT CAVOK TX26/2115Z TN09/2104Z
Wind Visibility Clouds
Variable at 2 knots 10,000+ meters
  • No significant clouds
Temporary Apr-21 @ 10:00 to Apr-21 @ 18:00
TEMPO 2110/2118 12005KT 9999 FEW060
Wind Visibility Clouds
120° at 5 knots 10,000+ meters
  • Few at 6,000' AGL
TAF LOWK 201715Z 2018/2118 VRB02KT CAVOK TX26/2115Z TN09/2104Z TEMPO 2110/2118 12005KT 9999 FEW060
Issued Apr-20 @ 17:15 UTC
(an hour ago)
Valid From Apr-20 @ 18:00 UTC
(40 minutes ago)
Valid To Apr-21 @ 18:00 UTC
(in 23 hours)
Apr-20 @ 18:00 - Apr-21 @ 18:00
Wind Visibility
Variable at 2 knots 10,000+ meters
Clouds
  • No significant clouds
Temporary Apr-21 @ 10:00 - Apr-21 @ 18:00
Wind Visibility
120° at 5 knots 10,000+ meters
Clouds
  • Few at 6,000' AGL